createdAt,value
2022-09-05T01:33:06.373Z,99844.88
2022-09-05T01:37:33.593Z,99843.31
2022-09-05T03:23:34.342Z,99822.41
2022-09-05T03:57:11.773Z,99822.97
2022-09-05T04:00:40.427Z,99824.56
2022-09-05T04:08:11.497Z,99823.53
2022-09-05T04:09:09.698Z,99824.56
2022-09-05T04:23:16.778Z,99823.25
2022-09-05T05:18:10.906Z,99855.34
2022-09-05T05:19:05.122Z,99857.97
2022-09-05T05:23:35.844Z,99865.38
2022-09-05T05:26:55.895Z,99862.75
2022-09-05T05:30:35.839Z,99863.53
2022-09-05T05:33:54.348Z,99859.34
2022-09-05T05:41:57.507Z,99865.91
2022-09-05T05:46:22.998Z,99870.38
2022-09-05T06:04:24.986Z,99863.00
2022-09-05T06:14:59.472Z,99871.41
2022-09-05T06:22:08.690Z,99871.38
2022-09-05T06:30:46.231Z,99874.47
2022-09-05T06:35:05.143Z,99874.97
2022-09-05T07:58:13.638Z,99885.31
2022-09-05T08:01:01.198Z,99882.63
2022-09-05T08:03:56.171Z,99881.88
2022-09-05T08:07:47.116Z,99887.56
2022-09-05T08:10:08.203Z,99885.78
2022-09-05T08:13:24.144Z,99880.72
2022-09-05T08:16:19.491Z,99883.47
2022-09-05T08:20:08.538Z,99876.75
2022-09-05T08:23:07.360Z,99878.22
2022-09-05T08:26:04.496Z,99876.94
2022-09-05T08:29:02.909Z,99876.88
2022-09-05T08:31:55.607Z,99877.41
2022-09-05T08:34:49.673Z,99876.56
2022-09-05T08:37:38.658Z,99881.81
2022-09-05T08:40:32.202Z,99872.69
2022-09-05T08:46:36.041Z,99871.97
2022-09-05T08:46:51.665Z,99866.69
2022-09-05T08:50:13.000Z,99860.97
2022-09-05T08:53:28.151Z,99862.84
2022-09-05T08:56:26.093Z,99849.25
2022-09-05T08:59:33.073Z,99854.06
2022-09-05T09:03:03.930Z,99849.81
2022-09-05T09:06:40.354Z,99855.75
2022-09-05T09:09:43.508Z,99853.16
2022-09-05T09:13:08.655Z,99847.44
2022-09-05T09:16:06.635Z,99845.81
2022-09-05T09:19:10.511Z,99856.22
2022-09-05T09:22:10.697Z,99846.28
2022-09-05T09:25:15.890Z,99838.34
2022-09-05T09:28:51.440Z,99844.22
2022-09-05T09:32:01.172Z,99847.88
2022-09-05T09:35:06.109Z,99845.78
2022-09-05T09:38:31.898Z,99843.66
2022-09-05T09:41:57.157Z,99848.72
2022-09-05T09:45:22.534Z,99846.44
2022-09-05T09:49:09.561Z,99856.63
2022-09-05T09:52:56.440Z,99850.03
2022-09-05T09:56:50.352Z,99848.69
2022-09-05T10:00:11.300Z,99845.22
2022-09-05T10:10:35.840Z,99848.94
2022-09-05T10:10:50.235Z,99847.19
2022-09-05T10:11:54.936Z,99839.00
2022-09-05T10:15:23.200Z,99833.91
2022-09-05T10:18:41.241Z,99831.72
2022-09-05T10:25:48.459Z,99829.94
2022-09-05T10:28:42.819Z,99826.41
2022-09-05T10:35:09.784Z,99822.31
2022-09-05T10:35:23.678Z,99822.44
2022-09-05T10:38:15.384Z,99824.03
2022-09-05T10:41:20.718Z,99819.56
2022-09-05T10:44:13.544Z,99816.25
2022-09-05T10:47:18.854Z,99803.91
2022-09-05T10:50:24.583Z,99810.94
2022-09-05T10:53:39.328Z,99799.13
2022-09-05T10:56:35.395Z,99790.94
2022-09-05T11:02:15.702Z,99781.78
2022-09-05T11:02:47.318Z,99784.47
2022-09-05T11:05:39.940Z,99784.63
2022-09-05T11:08:38.423Z,99780.03
2022-09-05T11:11:34.588Z,99777.03
2022-09-05T11:14:49.321Z,99776.25
2022-09-05T11:17:43.194Z,99768.66
2022-09-05T11:20:46.211Z,99764.22
2022-09-05T11:23:40.424Z,99770.91
2022-09-05T11:26:42.311Z,99760.03
2022-09-05T11:29:37.887Z,99763.78
2022-09-05T11:39:19.486Z,99760.44
2022-09-05T11:39:54.893Z,99754.06
2022-09-05T11:40:59.152Z,99756.81
2022-09-05T11:44:25.611Z,99750.22
2022-09-05T11:48:06.278Z,99748.88
2022-09-05T11:51:51.854Z,99737.13
2022-09-05T11:55:21.043Z,99735.81
2022-09-05T11:58:45.996Z,99742.97
2022-09-05T12:01:44.834Z,99737.22
2022-09-05T12:05:48.965Z,99733.69
2022-09-05T12:08:06.394Z,99731.59
2022-09-05T12:11:09.878Z,99724.78
2022-09-05T12:14:20.915Z,99723.34
2022-09-05T12:20:43.787Z,99716.75
2022-09-05T12:24:28.504Z,99715.63
2022-09-05T12:27:44.916Z,99709.97
2022-09-05T12:30:16.336Z,99713.41
2022-09-05T12:36:08.578Z,99705.84
2022-09-05T12:40:53.948Z,99705.16
2022-09-05T12:40:58.169Z,99707.63
2022-09-05T12:42:08.264Z,99718.31
2022-09-05T12:43:57.434Z,99705.84
2022-09-05T12:46:24.292Z,99702.06
2022-09-05T12:49:34.980Z,99702.84
2022-09-05T12:52:42.426Z,99703.63
2022-09-05T12:55:36.438Z,99693.25
2022-09-05T13:03:01.614Z,99695.59
2022-09-05T13:03:11.562Z,99689.13
2022-09-05T13:05:01.781Z,99680.31
2022-09-05T13:07:56.253Z,99682.44
2022-09-05T13:14:48.187Z,99676.66
2022-09-05T13:15:01.976Z,99680.00
2022-09-05T13:17:07.536Z,99671.28
2022-09-05T13:19:57.023Z,99676.31
2022-09-05T13:22:48.741Z,99675.28
2022-09-05T13:25:37.889Z,99676.88
2022-09-05T13:28:36.072Z,99667.84
2022-09-05T13:37:54.326Z,99669.81
2022-09-05T13:38:12.464Z,99665.75
2022-09-05T13:38:49.289Z,99667.31
2022-09-05T13:41:28.743Z,99659.50
2022-09-05T13:44:25.574Z,99671.88
2022-09-05T13:46:58.982Z,99658.16
2022-09-05T13:49:35.233Z,99665.59
2022-09-05T13:52:35.722Z,99656.03
2022-09-05T13:55:24.192Z,99657.56
2022-09-05T13:57:59.873Z,99651.09
2022-09-05T14:01:35.009Z,99645.84
2022-09-05T14:05:05.947Z,99641.53
2022-09-05T14:08:23.624Z,99639.63
2022-09-05T14:11:31.317Z,99642.09
2022-09-05T14:14:11.282Z,99638.41
2022-09-05T14:16:54.267Z,99640.03
2022-09-05T14:19:43.422Z,99636.28
2022-09-05T14:22:33.494Z,99637.03
2022-09-05T14:25:07.824Z,99632.94
2022-09-05T14:27:45.325Z,99636.34
2022-09-05T14:32:07.929Z,99637.81
2022-09-05T14:37:42.187Z,99626.91
2022-09-05T14:37:49.292Z,99629.25
2022-09-05T14:40:30.451Z,99627.56
2022-09-05T14:43:33.896Z,99614.53
2022-09-05T14:46:35.094Z,99612.53
2022-09-05T14:49:40.069Z,99615.19
2022-09-05T14:52:20.325Z,99613.72
2022-09-05T15:02:41.618Z,99612.63
2022-09-05T15:02:49.219Z,99615.19
2022-09-05T15:06:40.580Z,99610.09
2022-09-05T15:11:25.933Z,99605.50
2022-09-05T15:12:34.038Z,99606.63
2022-09-05T15:15:25.950Z,99598.16
2022-09-05T15:18:00.537Z,99597.03
2022-09-05T15:20:35.848Z,99594.38
2022-09-05T15:23:11.154Z,99589.78
2022-09-05T15:25:49.327Z,99595.13
2022-09-05T15:28:21.648Z,99582.88
2022-09-05T15:31:01.652Z,99584.78
2022-09-05T15:33:32.708Z,99587.47
2022-09-05T15:36:04.258Z,99567.47
2022-09-05T15:38:48.928Z,99573.97
2022-09-05T15:41:27.179Z,99574.28
2022-09-05T15:44:03.832Z,99571.94
2022-09-05T15:46:49.406Z,99562.22
2022-09-05T15:49:33.845Z,99557.22
2022-09-05T15:52:06.444Z,99557.88
2022-09-05T15:54:40.614Z,99562.00
2022-09-05T15:57:17.441Z,99563.16
2022-09-05T15:59:52.608Z,99561.59
2022-09-05T16:02:28.254Z,99550.88
2022-09-05T16:10:34.419Z,99545.88
2022-09-05T16:10:35.541Z,99548.09
2022-09-05T16:14:39.533Z,99553.22
2022-09-05T16:23:13.779Z,99554.03
2022-09-05T16:23:32.676Z,99548.56
2022-09-05T16:23:39.537Z,99551.56
2022-09-05T16:26:13.173Z,99539.97
2022-09-05T16:28:52.614Z,99537.97
2022-09-05T16:31:29.729Z,99539.84
2022-09-05T16:34:00.957Z,99543.31
2022-09-05T16:36:53.186Z,99528.72
2022-09-05T16:39:42.755Z,99530.88
2022-09-05T16:42:20.400Z,99524.28
2022-09-05T16:44:59.974Z,99527.94
2022-09-05T16:47:36.511Z,99524.81
2022-09-05T16:50:23.990Z,99528.94
2022-09-05T16:53:28.348Z,99519.69
2022-09-05T16:56:03.473Z,99515.03
2022-09-05T16:58:38.598Z,99522.25
2022-09-05T17:01:29.399Z,99527.50
2022-09-05T17:04:08.052Z,99515.88
2022-09-05T17:06:55.068Z,99524.59
2022-09-05T17:09:28.569Z,99520.59
2022-09-05T17:12:02.136Z,99520.38
2022-09-05T17:14:38.007Z,99521.41
2022-09-05T17:18:04.610Z,99518.22
2022-09-05T17:20:14.608Z,99516.72
2022-09-05T17:25:58.553Z,99520.56
2022-09-05T17:29:30.533Z,99516.34
2022-09-05T17:29:49.644Z,99523.81
2022-09-05T17:32:00.184Z,99515.28
2022-09-05T17:35:18.627Z,99519.50
2022-09-05T17:38:24.130Z,99514.31
2022-09-05T17:41:37.024Z,99523.50
2022-09-05T17:44:18.074Z,99524.56
2022-09-05T17:47:07.382Z,99529.31
2022-09-05T17:49:46.401Z,99527.06
2022-09-05T17:52:23.427Z,99529.06
2022-09-05T17:54:57.499Z,99530.72
2022-09-05T17:57:41.376Z,99531.75
2022-09-05T18:00:59.354Z,99531.16
2022-09-05T18:04:14.569Z,99533.25
2022-09-05T18:10:12.736Z,99538.09
2022-09-05T18:13:31.755Z,99533.00
2022-09-05T18:16:12.482Z,99544.13
2022-09-05T18:19:33.703Z,99555.16
2022-09-05T18:21:51.091Z,99544.47
2022-09-05T18:24:33.348Z,99553.59
2022-09-05T18:27:43.846Z,99564.91
2022-09-05T18:30:12.232Z,99559.81
2022-09-05T18:32:48.051Z,99565.72
2022-09-05T18:35:37.497Z,99564.75
2022-09-05T18:38:50.296Z,99573.38
2022-09-05T18:41:25.275Z,99578.81
2022-09-05T18:44:13.300Z,99585.63
2022-09-05T18:46:54.929Z,99581.19
2022-09-05T18:50:22.429Z,99585.47
2022-09-05T18:52:23.744Z,99593.53
2022-09-05T18:56:11.297Z,99597.28
2022-09-05T18:57:58.979Z,99605.78
2022-09-05T19:00:44.272Z,99598.94
2022-09-05T19:03:24.868Z,99602.16
2022-09-05T19:06:37.203Z,99598.22
2022-09-05T19:08:57.197Z,99593.03
2022-09-05T19:11:33.550Z,99588.91
2022-09-05T19:14:26.351Z,99590.84
2022-09-05T19:17:10.107Z,99594.88
2022-09-05T19:20:31.384Z,99595.19
2022-09-05T19:23:10.647Z,99588.94
2022-09-05T19:25:44.899Z,99592.66
2022-09-05T19:35:33.300Z,99586.09
2022-09-05T19:36:55.080Z,99584.31
2022-09-05T19:37:13.584Z,99585.97
2022-09-05T19:37:30.443Z,99584.19
2022-09-05T19:44:12.477Z,99575.56
2022-09-05T19:47:37.193Z,99575.72
2022-09-05T19:47:50.283Z,99582.50
2022-09-05T19:48:28.351Z,99586.06
2022-09-05T19:51:16.528Z,99586.06
2022-09-05T19:54:01.338Z,99580.88
2022-09-05T19:56:38.877Z,99580.38
2022-09-05T19:59:18.818Z,99573.81
2022-09-05T20:01:49.095Z,99579.66
2022-09-05T20:04:19.063Z,99571.22
2022-09-05T20:06:50.472Z,99570.75
2022-09-05T20:09:24.032Z,99571.31
2022-09-05T20:11:57.900Z,99571.31
2022-09-05T20:14:30.697Z,99570.81
2022-09-05T20:17:20.935Z,99561.84
2022-09-05T20:19:51.195Z,99560.06
2022-09-05T20:22:49.469Z,99564.59
2022-09-05T20:25:36.706Z,99572.00
2022-09-05T20:28:10.293Z,99564.38
2022-09-05T20:30:45.000Z,99558.09
2022-09-05T20:33:21.719Z,99561.31
2022-09-05T20:43:10.885Z,99558.94
2022-09-05T20:43:22.289Z,99563.75
2022-09-05T20:43:24.001Z,99566.97
2022-09-05T20:44:41.637Z,99566.44
2022-09-05T20:54:08.100Z,99564.88
2022-09-05T20:54:08.675Z,99562.81
2022-09-05T20:54:14.521Z,99561.53
2022-09-05T20:56:07.530Z,99569.75
2022-09-05T20:58:40.156Z,99568.75
2022-09-05T21:01:20.864Z,99562.66
2022-09-05T21:03:57.465Z,99569.31
2022-09-05T21:06:33.522Z,99582.56
2022-09-05T21:09:24.485Z,99585.28
2022-09-05T21:11:55.798Z,99579.00
2022-09-05T21:14:29.697Z,99581.94
2022-09-05T21:17:04.884Z,99584.84
2022-09-05T21:19:54.194Z,99595.41
2022-09-05T21:22:31.234Z,99593.06
2022-09-05T21:25:18.511Z,99591.78
2022-09-05T21:28:03.668Z,99591.81
2022-09-05T21:30:36.908Z,99599.19
2022-09-05T21:33:16.708Z,99583.34
2022-09-05T21:35:50.633Z,99586.31
2022-09-05T21:38:32.195Z,99586.06
2022-09-05T21:41:03.135Z,99578.22
2022-09-05T21:47:40.417Z,99573.28
2022-09-05T21:47:48.740Z,99588.09
2022-09-05T21:49:25.865Z,99576.53
2022-09-05T21:51:55.301Z,99574.19
2022-09-05T21:59:15.201Z,99570.75
2022-09-05T21:59:16.154Z,99561.09
2022-09-05T22:00:11.893Z,99564.81
2022-09-05T22:02:49.808Z,99560.03
2022-09-05T22:05:20.237Z,99559.47
2022-09-05T22:07:53.520Z,99564.75
2022-09-05T22:10:23.339Z,99562.91
2022-09-05T22:13:09.390Z,99571.88
2022-09-05T22:15:39.135Z,99563.19
2022-09-05T22:18:17.344Z,99562.19
2022-09-05T22:21:31.887Z,99555.38
2022-09-05T22:23:45.461Z,99555.66
2022-09-05T22:26:15.829Z,99560.66
2022-09-05T22:28:49.088Z,99553.03
2022-09-05T22:31:18.847Z,99547.22
2022-09-05T22:33:51.237Z,99538.81
2022-09-05T22:36:20.832Z,99531.75
2022-09-05T22:38:50.244Z,99531.47
2022-09-05T22:41:30.420Z,99534.09
2022-09-05T22:44:00.666Z,99528.31
2022-09-05T22:46:30.630Z,99527.53
2022-09-05T22:49:01.419Z,99526.75
2022-09-05T22:51:31.055Z,99532.81
2022-09-05T22:54:00.467Z,99530.19
2022-09-05T22:56:36.117Z,99524.91
2022-09-05T22:59:06.560Z,99535.47
2022-09-05T23:01:36.336Z,99533.59
2022-09-05T23:04:07.467Z,99544.94
2022-09-05T23:06:37.109Z,99545.22
2022-09-05T23:09:06.551Z,99539.13
2022-09-05T23:11:36.401Z,99532.31
2022-09-05T23:14:05.836Z,99536.28
2022-09-05T23:16:35.245Z,99540.25
2022-09-05T23:19:06.038Z,99533.69
2022-09-05T23:21:36.199Z,99540.31
2022-09-05T23:24:06.043Z,99530.56
2022-09-05T23:26:35.460Z,99531.31
2022-09-05T23:29:05.031Z,99535.56
2022-09-05T23:31:34.447Z,99532.94
2022-09-05T23:34:03.910Z,99535.56
2022-09-05T23:36:34.770Z,99537.13
2022-09-05T23:39:04.303Z,99534.78
2022-09-05T23:41:33.811Z,99533.97
2022-09-05T23:44:03.989Z,99533.19
2022-09-05T23:46:33.497Z,99527.41
2022-09-05T23:49:02.909Z,99535.03
2022-09-05T23:51:33.696Z,99530.56
2022-09-05T23:54:03.147Z,99525.56
2022-09-05T23:56:32.580Z,99530.84
2022-09-05T23:59:02.048Z,99531.88
